Buckland, Massachusetts
Current Conditions -  °F | °C
As of 4:52 AM on Tuesday 21 Oct 2014 (Local Time) from KAQW Reporting Station
Overcast Overcast  
Wind Chill: 44°   Ceiling: 9500
Heat Index: 46°   Visibility: 10mi
Dew Point: 41°   Wind: 5mph
Humidity: 83%   Direction: 80°E
Pressure: 29.92"   Gusts: NA
Location:  42.59°N, 72.79°W
Report Text: KAQW 210852Z AUTO 08004KT 10SM FEW060 OVC095 08/05 A2992 RMK AO2 RAB0758E42 SLP136 P0000 60000 T00780050 57007
Loading
Personal Weather Stations






























Interactive Weather Map
Tropical Storm Tracking
New forecast layout! Learn more

10-Day Weather Forecast

Advertisements
Track Severe Weather on mobile